Terminal Aerodrome Forecast
Issued by NWS Missoula, MT

Home | Current Version | Previous Version | Text Only | Print | Product List | Glossary On
Versions: 1 2 3 4 5 6 7 8 9 10 11 12 13 14 15 16 17 18 19
508
FTUS45 KMSO 291122
TAFMSO
TAF
KMSO 291122Z 2912/3012 VRB05KT P6SM FEW050 OVC090
     FM292100 30010KT P6SM VCSH SCT050 OVC090
     FM300300 VRB03KT P6SM BKN050 OVC090=

USA.gov is the U.S. government's official web portal to all federal, state and local government web resources and services.